createdAt,value
2019-01-19T00:02:19.462Z,70.00
2019-01-19T00:05:25.880Z,70.00
2019-01-19T00:07:55.604Z,70.27
2019-01-19T00:10:46.886Z,70.87
2019-01-19T00:13:25.352Z,70.77
2019-01-19T00:16:12.664Z,70.77
2019-01-19T00:18:54.375Z,70.70
2019-01-19T00:21:35.776Z,70.84
2019-01-19T00:24:11.200Z,70.75
2019-01-19T00:26:50.104Z,70.81
2019-01-19T00:29:19.764Z,70.85
2019-01-19T00:32:01.372Z,71.04
2019-01-19T00:34:51.687Z,71.08
2019-01-19T00:37:27.147Z,70.89
2019-01-19T00:40:18.889Z,71.34
2019-01-19T00:42:48.575Z,71.34
2019-01-19T00:45:26.947Z,70.95
2019-01-19T00:48:22.350Z,70.95
2019-01-19T00:50:55.872Z,70.70
2019-01-19T00:53:34.680Z,71.01
2019-01-19T00:56:13.348Z,70.79
2019-01-19T00:58:43.041Z,70.44
2019-01-19T01:01:24.451Z,70.44
2019-01-19T01:04:06.141Z,70.58
2019-01-19T01:07:08.003Z,70.49
2019-01-19T01:09:58.310Z,70.91
2019-01-19T01:13:00.063Z,70.91
2019-01-19T01:15:44.862Z,71.15
2019-01-19T01:18:14.677Z,71.11
2019-01-19T01:20:47.126Z,70.88
2019-01-19T01:23:33.613Z,70.88
2019-01-19T01:26:37.155Z,71.04
2019-01-19T01:29:21.954Z,71.04
2019-01-19T01:31:54.408Z,71.13
2019-01-19T01:34:36.176Z,71.01
2019-01-19T01:37:23.818Z,71.01
2019-01-19T01:40:28.847Z,70.66
2019-01-19T01:43:07.693Z,70.08
2019-01-19T01:46:04.986Z,70.08
2019-01-19T01:48:49.275Z,69.83
2019-01-19T01:51:27.636Z,69.80
2019-01-19T01:54:18.512Z,69.53
2019-01-19T01:56:44.387Z,69.71
2019-01-19T01:59:29.468Z,69.21
2019-01-19T02:02:08.409Z,69.59
2019-01-19T02:04:54.717Z,70.49
2019-01-19T02:07:41.243Z,69.62
2019-01-19T02:10:25.998Z,69.38
2019-01-19T02:13:07.971Z,69.38
2019-01-19T02:15:40.827Z,69.22
2019-01-19T02:18:28.693Z,69.85
2019-01-19T02:21:01.148Z,69.85
2019-01-19T02:23:49.150Z,69.92
2019-01-19T02:26:30.565Z,69.04
2019-01-19T02:29:26.415Z,69.04
2019-01-19T02:32:15.996Z,69.33
2019-01-19T02:34:48.393Z,69.31
2019-01-19T02:37:18.077Z,69.28
2019-01-19T02:40:05.595Z,69.75
2019-01-19T02:42:47.114Z,69.41
2019-01-19T02:45:39.671Z,69.17
2019-01-19T02:48:43.211Z,69.48
2019-01-19T02:51:40.824Z,69.58
2019-01-19T02:54:29.007Z,69.26
2019-01-19T02:57:27.968Z,70.03
2019-01-19T03:00:06.215Z,70.32
2019-01-19T03:02:38.815Z,70.19
2019-01-19T03:05:08.489Z,70.64
2019-01-19T03:07:40.921Z,70.11
2019-01-19T03:10:13.303Z,70.11
2019-01-19T03:12:43.126Z,69.88
2019-01-19T03:15:22.168Z,68.23
2019-01-19T03:18:08.420Z,68.16
2019-01-19T03:20:50.160Z,66.10
2019-01-19T03:23:28.475Z,63.50
2019-01-19T03:25:58.161Z,63.02
2019-01-19T03:28:30.622Z,63.27
2019-01-19T03:31:20.088Z,63.27
2019-01-19T03:33:55.890Z,63.22
2019-01-19T03:36:28.153Z,62.62
2019-01-19T03:39:31.635Z,62.74
2019-01-19T03:42:27.148Z,62.17
2019-01-19T03:44:56.837Z,63.54
2019-01-19T03:47:38.749Z,64.28
2019-01-19T03:50:29.809Z,63.22
2019-01-19T03:53:18.672Z,63.64
2019-01-19T03:56:06.015Z,66.10
2019-01-19T03:58:56.931Z,66.47
2019-01-19T04:01:29.190Z,66.43
2019-01-19T04:04:02.099Z,65.65
2019-01-19T04:06:41.004Z,66.12
2019-01-19T04:09:13.600Z,66.12
2019-01-19T04:11:49.319Z,65.86
2019-01-19T04:14:38.941Z,66.12
2019-01-19T04:17:28.272Z,65.86
2019-01-19T04:20:06.956Z,66.48
2019-01-19T04:22:33.138Z,66.44
2019-01-19T04:25:02.857Z,66.48
2019-01-19T04:27:28.729Z,65.83
2019-01-19T04:29:54.576Z,65.83
2019-01-19T04:32:20.452Z,66.43
2019-01-19T04:34:46.336Z,65.92
2019-01-19T04:37:12.192Z,65.94
2019-01-19T04:39:38.069Z,65.93
2019-01-19T04:42:05.131Z,65.94
2019-01-19T04:44:31.027Z,65.68
2019-01-19T04:46:56.926Z,65.45
2019-01-19T04:49:22.839Z,65.45
2019-01-19T04:51:48.705Z,65.50
2019-01-19T04:54:15.702Z,65.25
2019-01-19T04:56:41.579Z,65.20
2019-01-19T04:59:07.459Z,65.44
2019-01-19T05:01:33.316Z,64.93
2019-01-19T05:03:59.227Z,63.82
2019-01-19T05:06:30.364Z,64.69
2019-01-19T05:08:52.993Z,65.09
2019-01-19T05:11:18.871Z,66.29
2019-01-19T05:13:44.852Z,66.45
2019-01-19T05:16:10.705Z,66.20
2019-01-19T05:18:36.699Z,66.34
2019-01-19T05:21:02.909Z,66.24
2019-01-19T05:23:28.994Z,66.28
2019-01-19T05:25:54.988Z,67.17
2019-01-19T05:28:20.909Z,66.61
2019-01-19T05:30:46.764Z,66.26
2019-01-19T05:33:12.617Z,67.03
2019-01-19T05:35:38.490Z,67.27
2019-01-19T05:38:04.365Z,66.77
2019-01-19T05:40:30.255Z,66.74
2019-01-19T05:42:56.176Z,66.88
2019-01-19T05:45:22.029Z,67.22
2019-01-19T05:47:47.886Z,67.52
2019-01-19T05:50:15.896Z,67.51
2019-01-19T05:52:41.766Z,66.68
2019-01-19T05:55:08.182Z,66.44
2019-01-19T05:57:34.060Z,66.65
2019-01-19T06:00:00.024Z,66.96
2019-01-19T06:02:27.578Z,66.39
2019-01-19T06:04:53.583Z,66.47
2019-01-19T06:07:19.577Z,66.68
2019-01-19T06:09:45.613Z,67.02
2019-01-19T06:12:11.507Z,67.07
2019-01-19T06:14:37.373Z,67.17
2019-01-19T06:17:03.267Z,67.64
2019-01-19T06:19:29.560Z,67.97
2019-01-19T06:21:56.537Z,68.09
2019-01-19T06:24:22.428Z,68.67
2019-01-19T06:26:48.293Z,69.55
2019-01-19T06:29:14.174Z,69.63
2019-01-19T06:31:40.066Z,69.59
2019-01-19T06:34:05.943Z,70.24
2019-01-19T06:36:31.833Z,69.75
2019-01-19T06:38:57.706Z,70.29
2019-01-19T06:41:23.586Z,70.61
2019-01-19T06:43:49.434Z,70.61
2019-01-19T06:46:15.347Z,70.21
2019-01-19T06:48:41.236Z,70.43
2019-01-19T06:51:07.220Z,70.09
2019-01-19T06:53:33.088Z,70.42
2019-01-19T06:55:59.328Z,70.14
2019-01-19T06:58:25.218Z,70.03
2019-01-19T07:00:53.015Z,70.46
2019-01-19T07:03:18.908Z,69.81
2019-01-19T07:05:44.785Z,69.41
2019-01-19T07:08:10.677Z,69.51
2019-01-19T07:10:36.535Z,68.61
2019-01-19T07:13:02.528Z,68.97
2019-01-19T07:15:28.429Z,68.37
2019-01-19T07:17:54.348Z,68.62
2019-01-19T07:20:23.420Z,68.28
2019-01-19T07:22:49.374Z,68.76
2019-01-19T07:25:15.268Z,68.59
2019-01-19T07:27:41.116Z,68.26
2019-01-19T07:30:12.713Z,68.30
2019-01-19T07:32:38.655Z,68.18
2019-01-19T07:35:04.491Z,68.01
2019-01-19T07:37:30.346Z,68.25
2019-01-19T07:39:56.208Z,68.24
2019-01-19T07:42:22.088Z,68.91
2019-01-19T07:44:47.979Z,68.84
2019-01-19T07:47:14.218Z,68.63
2019-01-19T07:49:40.111Z,68.77
2019-01-19T07:52:06.004Z,68.33
2019-01-19T07:54:31.898Z,68.61
2019-01-19T07:56:58.129Z,68.10
2019-01-19T07:59:23.987Z,67.94
2019-01-19T08:01:49.853Z,67.51
2019-01-19T08:04:15.715Z,67.72
2019-01-19T08:06:41.615Z,67.48
2019-01-19T08:09:07.481Z,67.94
2019-01-19T08:11:33.377Z,67.67
2019-01-19T08:13:59.252Z,67.96
2019-01-19T08:16:25.241Z,68.08
2019-01-19T08:18:51.096Z,68.39
2019-01-19T08:21:16.960Z,67.55
2019-01-19T08:23:42.823Z,66.64
2019-01-19T08:26:08.684Z,67.16
2019-01-19T08:28:34.594Z,66.45
2019-01-19T08:31:00.479Z,65.87
2019-01-19T08:33:26.342Z,66.45
2019-01-19T08:35:52.815Z,65.49
2019-01-19T08:38:18.697Z,65.21
2019-01-19T08:40:44.578Z,63.96
2019-01-19T08:43:12.349Z,64.33
2019-01-19T08:45:38.364Z,64.60
2019-01-19T08:48:04.296Z,62.78
2019-01-19T08:50:30.191Z,63.68
2019-01-19T08:52:56.061Z,64.92
2019-01-19T08:55:21.915Z,66.44
2019-01-19T08:57:48.663Z,67.97
2019-01-19T09:00:19.204Z,69.30
2019-01-19T09:02:45.078Z,71.32
2019-01-19T09:05:11.582Z,71.24
2019-01-19T09:07:37.450Z,68.84
2019-01-19T09:10:07.717Z,67.67
2019-01-19T09:12:33.644Z,69.09
2019-01-19T09:14:59.527Z,69.93
2019-01-19T09:17:25.433Z,63.99
2019-01-19T09:19:51.312Z,63.71
2019-01-19T09:22:17.171Z,64.99
2019-01-19T09:24:43.044Z,64.20
2019-01-19T09:27:08.913Z,67.19
2019-01-19T09:29:34.951Z,68.23
2019-01-19T09:32:00.826Z,69.37
2019-01-19T09:34:26.687Z,68.47
2019-01-19T09:36:52.603Z,68.27
2019-01-19T09:39:18.479Z,67.86
2019-01-19T09:41:44.615Z,68.22
2019-01-19T09:44:10.513Z,67.70
2019-01-19T09:46:36.509Z,67.70
2019-01-19T09:49:02.821Z,68.50
2019-01-19T09:51:29.092Z,68.26
2019-01-19T09:53:54.989Z,68.80
2019-01-19T09:56:20.882Z,69.04
2019-01-19T09:58:47.997Z,68.80
2019-01-19T10:01:13.881Z,69.23
2019-01-19T10:03:39.741Z,69.30
2019-01-19T10:06:05.641Z,68.53
2019-01-19T10:08:31.525Z,68.75
2019-01-19T10:10:57.645Z,68.32
2019-01-19T10:13:23.472Z,67.94
2019-01-19T10:15:49.340Z,68.64
2019-01-19T10:18:15.523Z,67.61
2019-01-19T10:20:41.809Z,68.25
2019-01-19T10:23:07.693Z,68.09
2019-01-19T10:25:33.597Z,66.03
2019-01-19T10:27:59.414Z,67.18
2019-01-19T10:30:31.231Z,66.85
2019-01-19T10:32:57.086Z,67.53
2019-01-19T10:35:22.982Z,67.50
2019-01-19T10:37:55.751Z,67.75
2019-01-19T10:40:17.331Z,67.77
2019-01-19T10:42:43.204Z,67.04
2019-01-19T10:45:12.377Z,66.09
2019-01-19T10:47:38.226Z,66.07
2019-01-19T10:50:07.901Z,65.58
2019-01-19T10:52:33.774Z,65.86
2019-01-19T10:54:59.663Z,65.75
2019-01-19T10:57:25.510Z,66.89
2019-01-19T10:59:52.235Z,67.30
2019-01-19T11:02:18.114Z,67.42
2019-01-19T11:04:44.013Z,67.01
2019-01-19T11:07:09.865Z,67.25
2019-01-19T11:09:35.765Z,66.92
2019-01-19T11:12:01.650Z,67.02
2019-01-19T11:14:27.497Z,67.41
2019-01-19T11:16:53.433Z,66.72
2019-01-19T11:19:19.281Z,67.00
2019-01-19T11:21:45.157Z,67.37
2019-01-19T11:24:11.014Z,66.62
2019-01-19T11:26:36.889Z,66.29
2019-01-19T11:29:02.752Z,66.07
2019-01-19T11:31:28.682Z,65.70
2019-01-19T11:33:54.550Z,66.09
2019-01-19T11:36:20.421Z,66.48
2019-01-19T11:38:47.144Z,66.50
2019-01-19T11:41:13.026Z,65.55
2019-01-19T11:43:38.895Z,65.45
2019-01-19T11:46:04.764Z,65.45
2019-01-19T11:48:31.049Z,65.12
2019-01-19T11:50:56.943Z,63.95
2019-01-19T11:53:22.821Z,63.54
2019-01-19T11:55:48.718Z,64.29
2019-01-19T11:58:14.562Z,63.98
2019-01-19T12:00:41.339Z,64.07
2019-01-19T12:03:07.190Z,64.08
2019-01-19T12:05:33.082Z,63.34
2019-01-19T12:07:58.943Z,63.49
2019-01-19T12:10:26.745Z,62.31
2019-01-19T12:12:52.595Z,61.79
2019-01-19T12:15:18.476Z,61.56
2019-01-19T12:17:44.397Z,61.93
2019-01-19T12:20:22.659Z,61.98
2019-01-19T12:22:48.586Z,61.78
2019-01-19T12:25:20.491Z,62.63
2019-01-19T12:27:48.800Z,62.85
2019-01-19T12:30:22.862Z,63.03
2019-01-19T12:32:48.732Z,62.73
2019-01-19T12:35:15.121Z,62.68
2019-01-19T12:37:41.129Z,62.12
2019-01-19T12:40:12.903Z,60.98
2019-01-19T12:43:01.041Z,60.02
2019-01-19T12:45:42.741Z,60.03
2019-01-19T12:48:08.621Z,60.11
2019-01-19T12:50:34.727Z,59.84
2019-01-19T12:53:00.786Z,58.64
2019-01-19T12:55:26.654Z,57.49
2019-01-19T12:57:52.569Z,57.41
2019-01-19T13:00:20.964Z,57.23
2019-01-19T13:02:48.115Z,57.38
2019-01-19T13:05:17.513Z,56.09
2019-01-19T13:07:44.087Z,54.91
2019-01-19T13:10:19.916Z,54.28
2019-01-19T13:12:46.322Z,54.20
2019-01-19T13:15:22.089Z,53.63
2019-01-19T13:18:04.075Z,52.87
2019-01-19T13:20:42.602Z,53.93
2019-01-19T13:23:18.108Z,53.61
2019-01-19T13:25:53.807Z,54.02
2019-01-19T13:28:35.957Z,54.64
2019-01-19T13:31:33.166Z,54.82
2019-01-19T13:34:14.899Z,54.54
2019-01-19T13:36:53.630Z,53.76
2019-01-19T13:39:29.241Z,54.75
2019-01-19T13:42:18.814Z,54.80
2019-01-19T13:45:04.150Z,54.04
2019-01-19T13:47:36.872Z,53.84
2019-01-19T13:50:35.523Z,54.97
2019-01-19T13:53:16.554Z,54.21
2019-01-19T13:56:06.250Z,54.64
2019-01-19T13:58:36.118Z,54.03
2019-01-19T14:01:27.105Z,55.70
2019-01-19T14:03:57.715Z,55.17
2019-01-19T14:06:36.184Z,54.03
2019-01-19T14:09:23.617Z,54.11
2019-01-19T14:12:11.374Z,53.67
2019-01-19T14:14:43.912Z,54.18
2019-01-19T14:17:36.532Z,54.25
2019-01-19T14:20:15.427Z,53.84
2019-01-19T14:22:47.965Z,53.13
2019-01-19T14:25:36.261Z,52.46
2019-01-19T14:28:12.149Z,50.95
2019-01-19T14:30:44.841Z,51.20
2019-01-19T14:33:23.730Z,50.91
2019-01-19T14:36:12.625Z,50.50
2019-01-19T14:38:56.842Z,49.77
2019-01-19T14:41:34.958Z,50.08
2019-01-19T14:44:23.005Z,49.07
2019-01-19T14:46:52.673Z,48.06
2019-01-19T14:49:34.407Z,47.84
2019-01-19T14:52:07.142Z,48.18
2019-01-19T14:54:48.011Z,47.74
2019-01-19T14:57:23.982Z,47.42
2019-01-19T14:59:56.707Z,47.92
2019-01-19T15:02:32.403Z,47.67
2019-01-19T15:05:02.986Z,48.22
2019-01-19T15:07:32.696Z,49.18
2019-01-19T15:10:13.693Z,49.31
2019-01-19T15:12:52.133Z,49.74
2019-01-19T15:15:27.632Z,49.37
2019-01-19T15:18:15.675Z,48.70
2019-01-19T15:20:51.646Z,49.30
2019-01-19T15:23:39.065Z,49.60
2019-01-19T15:26:14.991Z,50.18
2019-01-19T15:29:07.459Z,50.58
2019-01-19T15:31:49.435Z,50.60
2019-01-19T15:34:25.442Z,49.91
2019-01-19T15:37:11.822Z,50.24
2019-01-19T15:39:47.537Z,50.69
2019-01-19T15:42:29.534Z,52.01
2019-01-19T15:45:08.572Z,51.04
2019-01-19T15:47:55.206Z,51.72
2019-01-19T15:50:41.799Z,52.17
2019-01-19T15:53:28.406Z,51.89
2019-01-19T15:56:15.114Z,51.93
2019-01-19T15:59:01.718Z,51.32
2019-01-19T16:01:48.215Z,51.55
2019-01-19T16:04:35.122Z,51.33
2019-01-19T19:48:59.681Z,68.83
2019-01-19T19:51:59.640Z,68.50
2019-01-19T19:54:25.712Z,68.43
2019-01-19T19:56:51.607Z,68.45
2019-01-19T19:59:17.553Z,68.46
2019-01-19T20:01:43.440Z,68.53
2019-01-19T20:06:53.723Z,68.08
2019-01-19T20:09:20.618Z,67.19
2019-01-19T20:13:29.038Z,67.25
2019-01-19T20:15:56.231Z,66.99
2019-01-19T20:18:23.621Z,66.83
2019-01-19T20:20:51.155Z,66.77
2019-01-19T20:23:17.652Z,66.77
2019-01-19T20:25:44.696Z,66.82
2019-01-19T20:28:11.945Z,66.82
2019-01-19T20:30:39.109Z,66.87
2019-01-19T20:33:08.003Z,66.85
2019-01-19T20:35:35.011Z,66.87
2019-01-19T20:38:02.128Z,66.68
2019-01-19T20:40:29.123Z,66.64
2019-01-19T20:42:56.252Z,66.29
2019-01-19T20:45:23.032Z,66.20
2019-01-19T20:47:50.136Z,66.62
2019-01-19T20:50:16.764Z,66.62
2019-01-19T20:52:43.657Z,66.55
2019-01-19T20:57:51.197Z,66.46
2019-01-19T21:00:18.273Z,66.99
2019-01-19T21:02:44.267Z,67.17
2019-01-19T21:05:13.148Z,67.17
2019-01-19T21:07:39.036Z,67.28
2019-01-19T21:10:05.978Z,67.28
2019-01-19T21:12:31.966Z,67.31
2019-01-19T21:14:57.850Z,67.22
2019-01-19T21:17:23.720Z,67.22
2019-01-19T21:19:49.750Z,67.11
2019-01-19T21:22:15.620Z,67.24
2019-01-19T21:24:41.496Z,67.38
2019-01-19T21:27:07.535Z,66.70
2019-01-19T21:29:33.590Z,66.70
2019-01-19T21:31:59.455Z,66.58
2019-01-19T21:34:25.466Z,66.94
2019-01-19T21:36:51.430Z,66.76
2019-01-19T21:39:17.410Z,67.07
2019-01-19T21:41:43.331Z,66.83
2019-01-19T21:44:09.204Z,67.25
2019-01-19T21:46:35.107Z,67.30
2019-01-19T21:49:01.112Z,67.67
2019-01-19T21:51:26.981Z,68.00
2019-01-19T21:53:52.879Z,67.92
2019-01-19T21:56:18.811Z,68.27
2019-01-19T21:58:44.881Z,68.40
2019-01-19T22:01:10.748Z,68.40
2019-01-19T22:03:36.691Z,67.90
2019-01-19T22:06:02.554Z,68.09
2019-01-19T22:08:28.416Z,68.07
2019-01-19T22:10:54.384Z,68.30
2019-01-19T22:13:20.422Z,68.32
2019-01-19T22:15:46.725Z,68.28
2019-01-19T22:18:12.603Z,68.08
2019-01-19T22:20:38.478Z,68.19
2019-01-19T22:23:04.388Z,68.09
2019-01-19T22:25:30.257Z,68.60
2019-01-19T22:27:56.134Z,68.72
2019-01-19T22:30:22.929Z,68.49
2019-01-19T22:32:50.786Z,68.38
2019-01-19T22:35:16.640Z,68.15
2019-01-19T22:37:42.642Z,68.28
2019-01-19T22:40:12.170Z,68.53
2019-01-19T22:42:38.036Z,68.19
2019-01-19T22:45:07.314Z,68.44
2019-01-19T22:47:33.185Z,68.44
2019-01-19T22:49:59.126Z,68.59
2019-01-19T22:52:25.003Z,68.77
2019-01-19T22:54:50.856Z,68.94
2019-01-19T22:57:16.765Z,69.29
2019-01-19T22:59:42.660Z,69.54
2019-01-19T23:02:08.518Z,69.67
2019-01-19T23:04:34.399Z,69.96
2019-01-19T23:07:00.305Z,69.92
2019-01-19T23:09:26.165Z,69.87
2019-01-19T23:11:52.140Z,70.23
2019-01-19T23:14:21.927Z,70.13
2019-01-19T23:16:47.802Z,69.93
2019-01-19T23:19:14.063Z,69.78
2019-01-19T23:21:39.913Z,69.67
2019-01-19T23:24:05.785Z,69.48
2019-01-19T23:26:32.451Z,69.15
2019-01-19T23:28:58.318Z,69.09
2019-01-19T23:31:24.223Z,69.02
2019-01-19T23:33:50.079Z,68.99
2019-01-19T23:36:15.946Z,69.33
2019-01-19T23:38:41.891Z,69.89
2019-01-19T23:41:09.148Z,69.80
2019-01-19T23:43:35.397Z,69.61
2019-01-19T23:46:01.257Z,69.72
2019-01-19T23:48:27.169Z,69.67
2019-01-19T23:50:53.050Z,69.87
2019-01-19T23:53:18.987Z,69.96
2019-01-19T23:55:44.839Z,70.08
2019-01-19T23:58:10.759Z,70.05
